Time;durP1;ratioP1;P1;durP2;ratioP2;P2;SDS_P1;SDS_P2;PMS_P1;PMS_P2;Temp;Humidity;BMP_temperature;BMP_pressure;BME280_temperature;BME280_humidity;BME280_pressure;Samples;Min_cycle;Max_cycle;Signal;HPM_P1;HPM_P2
2022/02/22 00:00:17;;;;;;;13.23;4.40;;;;;;;;;;5069393;28;20035;-45
2022/02/22 00:02:43;;;;;;;16.23;5.07;;;;;;;;;;5070076;28;20055;-47
2022/02/22 00:05:10;;;;;;;14.73;4.63;;;;;;;;;;5069351;28;20028;-46
2022/02/22 00:07:36;;;;;;;18.02;4.10;;;;;;;;;;5067276;28;20021;-50
2022/02/22 00:10:03;;;;;;;11.70;3.80;;;;;;;;;;5060303;28;20029;-49
2022/02/22 00:12:29;;;;;;;16.20;4.57;;;;;;;;;;5069416;28;20036;-47
2022/02/22 00:14:55;;;;;;;17.02;4.55;;;;;;;;;;5069604;28;20036;-45
2022/02/22 00:17:22;;;;;;;12.90;3.92;;;;;;;;;;5068537;28;20056;-46
2022/02/22 00:19:48;;;;;;;13.57;4.25;;;;;;;;;;5068918;28;20562;-48
2022/02/22 00:22:14;;;;;;;13.45;4.45;;;;;;;;;;5069432;28;20454;-48
2022/02/22 00:24:41;;;;;;;15.07;3.15;;;;;;;;;;5069385;28;20063;-51
2022/02/22 00:27:08;;;;;;;13.25;4.03;;;;;;;;;;5059430;28;20086;-48
2022/02/22 00:29:35;;;;;;;12.20;3.60;;;;;;;;;;5069237;28;20024;-46
2022/02/22 00:32:01;;;;;;;14.00;4.10;;;;;;;;;;5068841;28;20502;-49
2022/02/22 00:34:27;;;;;;;14.98;4.10;;;;;;;;;;5067754;28;20541;-48
2022/02/22 00:36:53;;;;;;;14.57;4.18;;;;;;;;;;5069309;28;20036;-50
2022/02/22 00:39:19;;;;;;;14.98;3.92;;;;;;;;;;5069087;28;20439;-48
2022/02/22 00:41:45;;;;;;;15.55;4.32;;;;;;;;;;5068846;28;20135;-51
2022/02/22 00:44:11;;;;;;;12.32;4.25;;;;;;;;;;5069415;28;20031;-51
2022/02/22 00:46:38;;;;;;;12.98;3.75;;;;;;;;;;5068426;28;20490;-50
2022/02/22 00:49:04;;;;;;;12.75;3.75;;;;;;;;;;5068968;28;20093;-48
2022/02/22 00:51:30;;;;;;;16.33;4.43;;;;;;;;;;5068594;28;20023;-47
2022/02/22 00:53:56;;;;;;;13.07;4.00;;;;;;;;;;5054506;28;20029;-49
2022/02/22 00:56:22;;;;;;;9.80;2.92;;;;;;;;;;5056849;28;20041;-51
2022/02/22 00:58:48;;;;;;;14.35;4.05;;;;;;;;;;5068944;28;20078;-52
2022/02/22 01:01:16;;;;;;;15.82;3.72;;;;;;;;;;5068724;28;20532;-48
2022/02/22 01:03:42;;;;;;;13.02;3.55;;;;;;;;;;5069263;28;20064;-51
2022/02/22 01:06:08;;;;;;;12.35;3.78;;;;;;;;;;5068626;28;20052;-48
2022/02/22 01:08:34;;;;;;;12.63;3.55;;;;;;;;;;5066807;28;20115;-47
2022/02/22 01:11:00;;;;;;;12.60;3.65;;;;;;;;;;5068957;28;20108;-46
2022/02/22 01:13:26;;;;;;;11.90;3.10;;;;;;;;;;5068296;28;20509;-48
2022/02/22 01:15:52;;;;;;;12.82;3.58;;;;;;;;;;5068267;28;20041;-49
2022/02/22 01:18:19;;;;;;;13.93;4.35;;;;;;;;;;5068428;28;20024;-49
2022/02/22 01:20:44;;;;;;;13.70;4.00;;;;;;;;;;5068518;28;20063;-46
2022/02/22 01:23:10;;;;;;;16.70;3.60;;;;;;;;;;5065802;28;20103;-47
2022/02/22 01:25:37;;;;;;;10.63;3.35;;;;;;;;;;5068334;28;20107;-49
2022/02/22 01:28:04;;;;;;;12.75;3.40;;;;;;;;;;5068121;28;20036;-47
2022/02/22 01:30:30;;;;;;;13.70;4.28;;;;;;;;;;5068182;28;20107;-48
2022/02/22 01:32:57;;;;;;;11.57;3.38;;;;;;;;;;5068022;28;20028;-47
2022/02/22 01:35:23;;;;;;;11.88;3.13;;;;;;;;;;5067625;28;20586;-49
2022/02/22 01:37:49;;;;;;;13.23;3.25;;;;;;;;;;5064623;28;20040;-49
2022/02/22 01:40:15;;;;;;;13.45;3.33;;;;;;;;;;5067946;28;20439;-50
2022/02/22 01:42:41;;;;;;;13.32;3.25;;;;;;;;;;5067888;28;20021;-51
2022/02/22 01:45:07;;;;;;;14.50;3.65;;;;;;;;;;5067916;28;20140;-50
2022/02/22 01:47:33;;;;;;;10.27;3.72;;;;;;;;;;5067390;28;20107;-47
2022/02/22 01:49:59;;;;;;;13.90;3.53;;;;;;;;;;5068223;28;20435;-45
2022/02/22 01:52:26;;;;;;;13.48;3.35;;;;;;;;;;5064383;28;20518;-50
2022/02/22 01:54:53;;;;;;;13.55;3.85;;;;;;;;;;5068170;28;20046;-48
2022/02/22 01:57:19;;;;;;;13.43;3.30;;;;;;;;;;5068112;28;20036;-47
2022/02/22 01:59:45;;;;;;;11.55;2.90;;;;;;;;;;5067814;28;20027;-50
2022/02/22 02:02:12;;;;;;;9.98;3.50;;;;;;;;;;5068068;28;20123;-51
2022/02/22 02:04:38;;;;;;;11.18;3.05;;;;;;;;;;5067613;28;20024;-49
2022/02/22 02:07:06;;;;;;;11.20;3.88;;;;;;;;;;5067359;28;20343;-46
2022/02/22 02:09:32;;;;;;;13.00;3.55;;;;;;;;;;5067446;28;20371;-49
2022/02/22 02:11:59;;;;;;;9.43;3.00;;;;;;;;;;5068316;28;20114;-49
2022/02/22 02:14:26;;;;;;;11.20;3.00;;;;;;;;;;5067207;28;20058;-49
2022/02/22 02:16:53;;;;;;;11.18;3.15;;;;;;;;;;5066109;28;20040;-46
2022/02/22 02:19:19;;;;;;;10.30;3.20;;;;;;;;;;5066937;28;20033;-50
2022/02/22 02:21:46;;;;;;;11.52;3.10;;;;;;;;;;5067693;28;20032;-49
2022/02/22 02:24:18;;;;;;;13.43;3.97;;;;;;;;;;5067468;28;20024;-47
2022/02/22 02:26:45;;;;;;;11.20;3.85;;;;;;;;;;5067932;28;20036;-48
2022/02/22 02:29:12;;;;;;;12.63;3.20;;;;;;;;;;5067886;28;20048;-46
2022/02/22 02:31:38;;;;;;;13.80;3.17;;;;;;;;;;5065925;28;20497;-46
2022/02/22 02:34:05;;;;;;;9.90;3.15;;;;;;;;;;5067792;28;20043;-50
2022/02/22 02:36:32;;;;;;;11.77;3.53;;;;;;;;;;5071151;28;20200;-46
2022/02/22 02:38:58;;;;;;;11.50;3.05;;;;;;;;;;5053821;28;20033;-49
2022/02/22 02:41:24;;;;;;;12.63;3.30;;;;;;;;;;5071597;28;20043;-48
2022/02/22 02:43:50;;;;;;;12.93;3.20;;;;;;;;;;5072001;28;20166;-49
2022/02/22 02:46:16;;;;;;;12.48;2.95;;;;;;;;;;5070461;28;20024;-47
2022/02/22 02:48:42;;;;;;;11.55;3.00;;;;;;;;;;5069718;28;20043;-50
2022/02/22 02:51:08;;;;;;;15.48;4.22;;;;;;;;;;5071099;28;20554;-50
2022/02/22 02:53:34;;;;;;;13.15;2.97;;;;;;;;;;5071661;28;20035;-52
2022/02/22 02:56:00;;;;;;;9.15;3.00;;;;;;;;;;5071175;28;20494;-47
2022/02/22 02:58:26;;;;;;;11.32;3.17;;;;;;;;;;5070851;28;20021;-52
2022/02/22 03:00:53;;;;;;;11.75;3.78;;;;;;;;;;5070992;28;20036;-50
2022/02/22 03:03:18;;;;;;;11.73;4.22;;;;;;;;;;5066892;28;20036;-50
2022/02/22 03:05:45;;;;;;;10.80;3.58;;;;;;;;;;5060289;28;20017;-52
2022/02/22 03:08:11;;;;;;;12.90;3.42;;;;;;;;;;5070575;28;20062;-49
2022/02/22 03:10:37;;;;;;;11.15;3.05;;;;;;;;;;5070668;28;20082;-50
2022/02/22 03:13:03;;;;;;;11.43;3.38;;;;;;;;;;5070623;28;20024;-50
2022/02/22 03:15:29;;;;;;;9.95;3.42;;;;;;;;;;5070574;28;20510;-46
2022/02/22 03:17:55;;;;;;;11.20;2.88;;;;;;;;;;5070465;28;20032;-51
2022/02/22 03:20:21;;;;;;;11.43;3.63;;;;;;;;;;5069573;28;20028;-52
2022/02/22 03:22:48;;;;;;;10.77;2.80;;;;;;;;;;5070999;28;20124;-51
2022/02/22 03:25:14;;;;;;;12.35;3.28;;;;;;;;;;5070761;28;20021;-51
2022/02/22 03:27:41;;;;;;;11.85;3.40;;;;;;;;;;5070643;28;20033;-52
2022/02/22 03:30:07;;;;;;;11.65;2.92;;;;;;;;;;5069391;28;20025;-46
2022/02/22 03:32:34;;;;;;;11.48;3.05;;;;;;;;;;5067761;28;20406;-52
2022/02/22 03:35:00;;;;;;;8.85;2.65;;;;;;;;;;5068647;28;20053;-48
2022/02/22 03:37:26;;;;;;;12.60;3.60;;;;;;;;;;5069863;28;20050;-47
2022/02/22 03:39:52;;;;;;;12.60;2.78;;;;;;;;;;5070980;28;20115;-46
2022/02/22 03:42:18;;;;;;;10.07;2.72;;;;;;;;;;5070366;28;20107;-51
2022/02/22 03:44:44;;;;;;;11.32;3.00;;;;;;;;;;5068994;28;20029;-50
2022/02/22 03:47:10;;;;;;;14.45;2.83;;;;;;;;;;5070103;28;20028;-48
2022/02/22 03:49:36;;;;;;;9.90;2.53;;;;;;;;;;5064741;28;20546;-49
2022/02/22 03:52:02;;;;;;;12.55;2.80;;;;;;;;;;5069694;28;20488;-50
2022/02/22 03:54:28;;;;;;;8.25;2.28;;;;;;;;;;5069925;28;20035;-46
2022/02/22 03:56:54;;;;;;;9.70;2.72;;;;;;;;;;5069821;28;20032;-48
2022/02/22 03:59:20;;;;;;;14.02;3.53;;;;;;;;;;5069987;28;20169;-49
2022/02/22 04:01:49;;;;;;;10.13;2.88;;;;;;;;;;5069871;28;20356;-48
2022/02/22 04:04:17;;;;;;;8.95;2.60;;;;;;;;;;5069782;28;20036;-49
2022/02/22 04:06:43;;;;;;;11.07;2.50;;;;;;;;;;5069486;28;20553;-47
2022/02/22 04:09:09;;;;;;;10.23;2.70;;;;;;;;;;5069614;28;20116;-47
2022/02/22 04:11:35;;;;;;;10.77;3.05;;;;;;;;;;5069724;28;20115;-47
2022/02/22 04:14:01;;;;;;;12.68;3.05;;;;;;;;;;5069337;28;20616;-45
2022/02/22 04:16:27;;;;;;;9.25;3.20;;;;;;;;;;5069591;28;20095;-51
2022/02/22 04:18:53;;;;;;;10.80;2.50;;;;;;;;;;5068353;28;20064;-47
2022/02/22 04:21:19;;;;;;;8.38;2.45;;;;;;;;;;5069067;28;20029;-48
2022/02/22 04:23:45;;;;;;;9.40;2.85;;;;;;;;;;5069377;28;20531;-48
2022/02/22 04:26:11;;;;;;;12.90;3.53;;;;;;;;;;5069223;28;20111;-50
2022/02/22 04:28:37;;;;;;;9.88;2.92;;;;;;;;;;5069247;28;20119;-48
2022/02/22 04:31:03;;;;;;;10.65;2.85;;;;;;;;;;5069336;28;20036;-51
2022/02/22 04:33:29;;;;;;;9.88;3.15;;;;;;;;;;5068478;28;20087;-50
2022/02/22 04:35:55;;;;;;;8.55;2.40;;;;;;;;;;5069143;28;20068;-49
2022/02/22 04:38:21;;;;;;;12.90;3.05;;;;;;;;;;5068927;28;20119;-55
2022/02/22 04:40:47;;;;;;;10.98;3.08;;;;;;;;;;5069037;28;20398;-48
2022/02/22 04:43:13;;;;;;;8.70;2.30;;;;;;;;;;5068755;28;20025;-50
2022/02/22 04:45:39;;;;;;;12.38;3.50;;;;;;;;;;5069616;28;20016;-53
2022/02/22 04:48:06;;;;;;;9.25;2.35;;;;;;;;;;5056320;28;20029;-49
2022/02/22 04:50:32;;;;;;;9.30;2.95;;;;;;;;;;5068915;28;20028;-53
2022/02/22 04:52:58;;;;;;;10.63;2.42;;;;;;;;;;5068603;28;20024;-50
2022/02/22 04:55:24;;;;;;;9.82;2.65;;;;;;;;;;5068633;28;20025;-46
2022/02/22 04:57:50;;;;;;;11.20;2.45;;;;;;;;;;5068319;28;20125;-49
2022/02/22 05:00:16;;;;;;;10.93;2.72;;;;;;;;;;5068078;28;20024;-48
2022/02/22 05:02:43;;;;;;;11.65;2.75;;;;;;;;;;5060460;28;20032;-47
2022/02/22 05:05:09;;;;;;;8.95;2.60;;;;;;;;;;5062082;28;20029;-48
2022/02/22 05:07:36;;;;;;;12.60;3.22;;;;;;;;;;5068698;28;20024;-50
2022/02/22 05:10:03;;;;;;;13.45;3.35;;;;;;;;;;5068962;28;20025;-51
2022/02/22 05:12:29;;;;;;;9.00;2.33;;;;;;;;;;5068298;28;20029;-49
2022/02/22 05:14:55;;;;;;;9.70;3.22;;;;;;;;;;5068503;28;20052;-47
2022/02/22 05:17:21;;;;;;;13.65;3.40;;;;;;;;;;5067780;28;20536;-51
2022/02/22 05:19:47;;;;;;;11.15;2.95;;;;;;;;;;5069345;28;20170;-49
2022/02/22 05:22:13;;;;;;;11.35;3.13;;;;;;;;;;5069006;28;20058;-51
2022/02/22 05:24:39;;;;;;;10.80;2.67;;;;;;;;;;5069254;28;20553;-48
2022/02/22 05:27:05;;;;;;;12.30;2.60;;;;;;;;;;5069642;28;20448;-51
2022/02/22 05:29:31;;;;;;;12.25;3.08;;;;;;;;;;5069054;28;20033;-48
2022/02/22 05:31:57;;;;;;;9.65;2.65;;;;;;;;;;5068887;28;20047;-47
2022/02/22 05:34:23;;;;;;;12.70;3.33;;;;;;;;;;5069027;28;20379;-53
2022/02/22 05:36:50;;;;;;;9.52;2.15;;;;;;;;;;5068676;28;20036;-46
2022/02/22 05:39:17;;;;;;;13.43;3.22;;;;;;;;;;5069453;28;20031;-48
2022/02/22 05:41:43;;;;;;;13.48;3.70;;;;;;;;;;5069318;28;20154;-51
2022/02/22 05:44:09;;;;;;;9.07;2.72;;;;;;;;;;5069281;28;20394;-53
2022/02/22 05:46:35;;;;;;;13.00;3.22;;;;;;;;;;5065403;28;20036;-51
2022/02/22 05:49:00;;;;;;;13.55;4.15;;;;;;;;;;5069142;28;20055;-51
2022/02/22 05:51:26;;;;;;;10.38;2.53;;;;;;;;;;5069046;28;20016;-48
2022/02/22 05:53:53;;;;;;;10.57;2.88;;;;;;;;;;5069384;28;20055;-49
2022/02/22 05:56:19;;;;;;;11.52;3.00;;;;;;;;;;5068627;28;20097;-47
2022/02/22 05:58:45;;;;;;;16.17;4.45;;;;;;;;;;5069595;28;20041;-48
2022/02/22 06:01:11;;;;;;;11.13;2.60;;;;;;;;;;5063329;28;20455;-46
2022/02/22 06:03:37;;;;;;;12.10;3.47;;;;;;;;;;5069182;28;20052;-52
2022/02/22 06:06:03;;;;;;;11.18;2.88;;;;;;;;;;5069394;28;20074;-46
2022/02/22 06:08:29;;;;;;;15.00;2.80;;;;;;;;;;5069536;28;20016;-47
2022/02/22 06:10:56;;;;;;;11.00;2.92;;;;;;;;;;5073145;28;20116;-50
2022/02/22 06:13:22;;;;;;;10.63;2.80;;;;;;;;;;5073131;28;20024;-48
2022/02/22 06:15:48;;;;;;;12.30;2.72;;;;;;;;;;5068445;28;20040;-45
2022/02/22 06:18:17;;;;;;;11.73;3.22;;;;;;;;;;5071896;28;20025;-47
2022/02/22 06:20:44;;;;;;;15.68;2.83;;;;;;;;;;5073220;28;20606;-47
2022/02/22 06:23:10;;;;;;;14.52;2.58;;;;;;;;;;5068204;28;20025;-49
2022/02/22 06:25:36;;;;;;;11.13;2.97;;;;;;;;;;5072943;28;20451;-49
2022/02/22 06:28:02;;;;;;;9.77;2.40;;;;;;;;;;5071286;28;20482;-51
2022/02/22 06:30:28;;;;;;;11.65;3.40;;;;;;;;;;5068454;28;20071;-49
2022/02/22 06:32:55;;;;;;;12.70;2.95;;;;;;;;;;5063704;28;20443;-48
2022/02/22 06:35:22;;;;;;;14.45;3.00;;;;;;;;;;5072322;28;20115;-49
2022/02/22 06:37:49;;;;;;;10.73;2.30;;;;;;;;;;5072083;28;20119;-51
2022/02/22 06:40:15;;;;;;;16.30;2.90;;;;;;;;;;5072793;28;20039;-48
2022/02/22 06:42:41;;;;;;;12.57;2.80;;;;;;;;;;5072352;28;20138;-49
2022/02/22 06:45:08;;;;;;;11.48;2.80;;;;;;;;;;5063415;28;20124;-49
2022/02/22 06:47:37;;;;;;;12.95;2.45;;;;;;;;;;5061661;28;20511;-48
2022/02/22 06:50:04;;;;;;;15.60;3.95;;;;;;;;;;5072398;28;20029;-48
2022/02/22 06:52:30;;;;;;;16.63;3.42;;;;;;;;;;5061778;28;20033;-52
2022/02/22 06:54:56;;;;;;;13.23;3.10;;;;;;;;;;5072394;28;20592;-50
2022/02/22 06:57:22;;;;;;;12.15;2.53;;;;;;;;;;5071578;28;20040;-48
2022/02/22 06:59:48;;;;;;;11.30;2.40;;;;;;;;;;5071985;28;20031;-51
2022/02/22 07:02:14;;;;;;;14.43;3.45;;;;;;;;;;5072214;28;20078;-52
2022/02/22 07:04:40;;;;;;;12.10;2.97;;;;;;;;;;5072063;28;20037;-49
2022/02/22 07:07:07;;;;;;;10.43;2.35;;;;;;;;;;5062756;28;20120;-46
2022/02/22 07:09:34;;;;;;;14.50;3.05;;;;;;;;;;5071848;28;20024;-47
2022/02/22 07:12:00;;;;;;;11.20;2.85;;;;;;;;;;5071653;28;20071;-46
2022/02/22 07:14:27;;;;;;;12.43;3.03;;;;;;;;;;5066971;28;20048;-53
2022/02/22 07:16:53;;;;;;;13.70;2.83;;;;;;;;;;5067465;28;20063;-52
2022/02/22 07:19:19;;;;;;;11.50;2.70;;;;;;;;;;5070247;28;20020;-45
2022/02/22 07:21:45;;;;;;;11.40;2.75;;;;;;;;;;5067060;28;20082;-52
2022/02/22 07:24:11;;;;;;;12.18;3.22;;;;;;;;;;5059776;28;20526;-48
2022/02/22 07:26:37;;;;;;;11.10;2.58;;;;;;;;;;5065703;28;20019;-48
2022/02/22 07:29:03;;;;;;;11.45;2.95;;;;;;;;;;5057487;28;20115;-50
2022/02/22 07:31:29;;;;;;;11.98;4.18;;;;;;;;;;5058236;28;20435;-49
2022/02/22 07:33:55;;;;;;;9.52;3.20;;;;;;;;;;5061435;28;20700;-51
2022/02/22 07:36:23;;;;;;;11.55;2.83;;;;;;;;;;5061554;28;20052;-49
2022/02/22 07:38:49;;;;;;;15.88;2.97;;;;;;;;;;5060740;28;20107;-55
2022/02/22 07:41:22;;;;;;;13.65;3.05;;;;;;;;;;5063930;28;20697;-47
2022/02/22 07:43:49;;;;;;;11.13;2.70;;;;;;;;;;5060653;28;20494;-47
2022/02/22 07:46:17;;;;;;;14.82;3.55;;;;;;;;;;5067334;28;20477;-52
2022/02/22 07:48:43;;;;;;;11.35;2.25;;;;;;;;;;5069926;28;20029;-47
2022/02/22 07:51:09;;;;;;;10.05;2.60;;;;;;;;;;5069896;28;20028;-49
2022/02/22 07:53:35;;;;;;;12.02;3.25;;;;;;;;;;5069238;28;20444;-51
2022/02/22 07:56:04;;;;;;;9.85;2.78;;;;;;;;;;5069479;28;20024;-48
2022/02/22 07:58:30;;;;;;;10.75;3.22;;;;;;;;;;5069852;28;20039;-47
2022/02/22 08:00:56;;;;;;;11.45;2.97;;;;;;;;;;5069725;28;20024;-48
2022/02/22 08:03:22;;;;;;;12.65;3.67;;;;;;;;;;5069100;28;20059;-46
2022/02/22 08:05:48;;;;;;;11.57;2.75;;;;;;;;;;5069081;28;20048;-44
2022/02/22 08:08:14;;;;;;;17.02;3.80;;;;;;;;;;5060047;28;20024;-51
2022/02/22 08:10:40;;;;;;;15.07;2.90;;;;;;;;;;5055186;28;20032;-46
2022/02/22 08:13:06;;;;;;;14.20;3.92;;;;;;;;;;5063346;28;20044;-50
2022/02/22 08:15:32;;;;;;;12.30;2.67;;;;;;;;;;5055459;28;20060;-47
2022/02/22 08:17:58;;;;;;;13.40;3.95;;;;;;;;;;5069699;28;20112;-50
2022/02/22 08:20:24;;;;;;;14.38;2.90;;;;;;;;;;5068415;28;20589;-49
2022/02/22 08:22:53;;;;;;;12.45;3.17;;;;;;;;;;5069797;28;20024;-46
2022/02/22 08:25:19;;;;;;;10.82;3.35;;;;;;;;;;5051604;28;20372;-48
2022/02/22 08:27:47;;;;;;;13.20;3.25;;;;;;;;;;5067495;28;20792;-47
2022/02/22 08:30:13;;;;;;;12.02;2.72;;;;;;;;;;5067153;28;20837;-46
2022/02/22 08:32:40;;;;;;;12.77;3.13;;;;;;;;;;5068111;28;20050;-50
2022/02/22 08:35:06;;;;;;;9.35;2.42;;;;;;;;;;5067322;28;20564;-51
2022/02/22 08:37:32;;;;;;;8.93;2.45;;;;;;;;;;5067360;28;20566;-46
2022/02/22 08:39:58;;;;;;;10.85;3.45;;;;;;;;;;5067449;28;20031;-51
2022/02/22 08:42:26;;;;;;;12.07;2.75;;;;;;;;;;5067181;28;20035;-52
2022/02/22 08:44:54;;;;;;;9.80;2.42;;;;;;;;;;5067566;28;20067;-47
2022/02/22 08:47:20;;;;;;;12.60;3.08;;;;;;;;;;5061269;28;20060;-51
2022/02/22 08:49:49;;;;;;;12.10;3.42;;;;;;;;;;5050509;28;20024;-50
2022/02/22 08:52:17;;;;;;;9.63;2.70;;;;;;;;;;5054080;28;20028;-47
2022/02/22 08:54:44;;;;;;;10.07;2.90;;;;;;;;;;5052693;28;20155;-53
2022/02/22 08:57:10;;;;;;;12.07;3.05;;;;;;;;;;5054163;28;20522;-51
2022/02/22 08:59:36;;;;;;;11.55;3.03;;;;;;;;;;5048911;28;20099;-49
2022/02/22 09:02:03;;;;;;;11.65;3.30;;;;;;;;;;5054462;28;20036;-53
2022/02/22 09:04:29;;;;;;;12.00;2.70;;;;;;;;;;5052980;28;20035;-51
2022/02/22 09:06:55;;;;;;;10.52;3.42;;;;;;;;;;5053948;28;20039;-50
2022/02/22 09:09:21;;;;;;;10.27;2.83;;;;;;;;;;5056391;28;20020;-51
2022/02/22 09:11:48;;;;;;;8.02;2.53;;;;;;;;;;5054222;28;20086;-49
2022/02/22 09:14:14;;;;;;;10.85;2.58;;;;;;;;;;5052575;28;20557;-51
2022/02/22 09:16:41;;;;;;;14.73;3.22;;;;;;;;;;5054793;28;20082;-47
2022/02/22 09:19:07;;;;;;;9.70;3.05;;;;;;;;;;5055695;28;20037;-52
2022/02/22 09:21:33;;;;;;;12.05;3.25;;;;;;;;;;5051888;28;20060;-46
2022/02/22 09:23:59;;;;;;;10.23;2.55;;;;;;;;;;5052214;28;20025;-46
2022/02/22 09:26:25;;;;;;;9.85;2.70;;;;;;;;;;5055383;28;20479;-51
2022/02/22 09:28:54;;;;;;;8.80;1.92;;;;;;;;;;5053433;28;20118;-52
2022/02/22 09:31:20;;;;;;;14.20;2.65;;;;;;;;;;5065595;28;20031;-49
2022/02/22 09:33:47;;;;;;;10.38;2.78;;;;;;;;;;5066579;28;20438;-50
2022/02/22 09:36:14;;;;;;;9.07;2.15;;;;;;;;;;5066159;28;20048;-48
2022/02/22 09:38:40;;;;;;;11.85;2.90;;;;;;;;;;5067319;28;20521;-50
2022/02/22 09:41:08;;;;;;;9.45;3.20;;;;;;;;;;5066792;28;20875;-49
2022/02/22 09:43:34;;;;;;;12.75;3.30;;;;;;;;;;5066686;28;20025;-46
2022/02/22 09:46:01;;;;;;;9.38;2.53;;;;;;;;;;5059168;28;20029;-49
2022/02/22 09:48:27;;;;;;;10.48;3.15;;;;;;;;;;5067329;28;20039;-47
2022/02/22 09:50:54;;;;;;;7.13;2.45;;;;;;;;;;5068026;28;20036;-46
2022/02/22 09:53:20;;;;;;;10.30;2.70;;;;;;;;;;5063602;28;20498;-49
2022/02/22 09:55:46;;;;;;;9.65;2.10;;;;;;;;;;5067363;28;20470;-49
2022/02/22 09:58:13;;;;;;;8.80;2.50;;;;;;;;;;5059541;28;20044;-52
2022/02/22 10:00:39;;;;;;;7.18;2.25;;;;;;;;;;5054040;28;20027;-51
2022/02/22 10:03:15;;;;;;;10.07;3.47;;;;;;;;;;5050115;28;20108;-52
2022/02/22 10:05:51;;;;;;;11.95;2.75;;;;;;;;;;5052655;28;20032;-53
2022/02/22 10:08:23;;;;;;;10.02;2.75;;;;;;;;;;5053900;28;20633;-50
2022/02/22 10:10:49;;;;;;;9.30;3.47;;;;;;;;;;5054114;28;20116;-49
2022/02/22 10:13:20;;;;;;;12.20;2.88;;;;;;;;;;5055479;28;20501;-50
2022/02/22 10:15:47;;;;;;;11.55;2.72;;;;;;;;;;5051418;28;20024;-50
2022/02/22 10:18:13;;;;;;;8.63;2.65;;;;;;;;;;5053482;28;20403;-50
2022/02/22 10:20:40;;;;;;;8.57;2.53;;;;;;;;;;5050791;28;20112;-53
2022/02/22 10:23:06;;;;;;;10.60;3.00;;;;;;;;;;5052209;28;20029;-51
2022/02/22 10:25:33;;;;;;;9.25;2.90;;;;;;;;;;5059006;28;20056;-52
2022/02/22 10:28:00;;;;;;;8.80;2.45;;;;;;;;;;5068872;28;20056;-53
2022/02/22 10:30:43;;;;;;;9.73;2.50;;;;;;;;;;5067425;28;20082;-53
2022/02/22 10:33:22;;;;;;;9.45;2.80;;;;;;;;;;5060545;28;20029;-53
2022/02/22 10:35:53;;;;;;;10.63;3.10;;;;;;;;;;5057440;28;20548;-48
2022/02/22 10:38:21;;;;;;;10.95;3.08;;;;;;;;;;5057780;28;20059;-47
2022/02/22 10:40:52;;;;;;;8.85;2.80;;;;;;;;;;5055533;28;20081;-47
2022/02/22 10:43:28;;;;;;;11.45;2.95;;;;;;;;;;5068045;28;20071;-50
2022/02/22 10:45:55;;;;;;;11.35;3.05;;;;;;;;;;5067719;28;20478;-48
2022/02/22 10:48:28;;;;;;;10.50;3.03;;;;;;;;;;5068169;28;20078;-47
2022/02/22 10:50:55;;;;;;;11.07;2.53;;;;;;;;;;5067907;28;20078;-47
2022/02/22 10:53:26;;;;;;;13.73;3.17;;;;;;;;;;5061649;28;20021;-51
2022/02/22 10:55:53;;;;;;;10.95;2.88;;;;;;;;;;5054503;28;20028;-48
2022/02/22 10:58:19;;;;;;;22.20;5.53;;;;;;;;;;5071626;28;20123;-50
2022/02/22 11:00:45;;;;;;;27.35;5.80;;;;;;;;;;5071845;28;20467;-50
2022/02/22 11:03:11;;;;;;;22.40;5.25;;;;;;;;;;5071804;28;20059;-50
2022/02/22 11:05:37;;;;;;;26.92;6.57;;;;;;;;;;5071964;28;20085;-50
2022/02/22 11:08:04;;;;;;;21.10;5.32;;;;;;;;;;5067541;28;20039;-45
2022/02/22 11:10:31;;;;;;;25.20;6.57;;;;;;;;;;5070692;28;20146;-48
2022/02/22 11:13:01;;;;;;;27.80;5.50;;;;;;;;;;5067392;28;20064;-48
2022/02/22 11:15:35;;;;;;;22.02;5.45;;;;;;;;;;5052416;28;20429;-51
2022/02/22 11:18:06;;;;;;;26.30;7.63;;;;;;;;;;5067981;28;20060;-53
2022/02/22 11:20:34;;;;;;;21.98;6.70;;;;;;;;;;5051519;28;20491;-49
2022/02/22 11:23:02;;;;;;;23.20;5.93;;;;;;;;;;5064931;28;20495;-48
2022/02/22 11:25:32;;;;;;;21.85;6.18;;;;;;;;;;5061695;28;20051;-47
2022/02/22 11:28:02;;;;;;;26.60;5.93;;;;;;;;;;5070661;28;20078;-50
2022/02/22 11:30:30;;;;;;;17.33;5.40;;;;;;;;;;5070374;28;20119;-49
2022/02/22 11:32:57;;;;;;;23.23;6.15;;;;;;;;;;5068036;28;20036;-50
2022/02/22 11:35:23;;;;;;;21.38;5.80;;;;;;;;;;5069659;28;20060;-49
2022/02/22 11:37:51;;;;;;;19.10;4.75;;;;;;;;;;5065280;28;20047;-48
2022/02/22 11:40:24;;;;;;;22.73;5.47;;;;;;;;;;5070484;28;20029;-51
2022/02/22 11:42:50;;;;;;;20.17;5.40;;;;;;;;;;5066460;28;20032;-55
2022/02/22 11:45:24;;;;;;;25.25;5.63;;;;;;;;;;5067097;28;20031;-51
2022/02/22 11:48:10;;;;;;;19.15;5.40;;;;;;;;;;5060486;28;20047;-50
2022/02/22 11:50:40;;;;;;;19.90;5.35;;;;;;;;;;5070399;28;20526;-50
2022/02/22 11:53:11;;;;;;;18.13;5.18;;;;;;;;;;5069873;28;20044;-47
2022/02/22 11:55:38;;;;;;;21.60;5.15;;;;;;;;;;5069872;28;20025;-46
2022/02/22 11:58:11;;;;;;;25.00;5.53;;;;;;;;;;5063703;28;20048;-51
2022/02/22 12:00:38;;;;;;;19.98;5.43;;;;;;;;;;5058240;28;20616;-49
2022/02/22 12:03:10;;;;;;;17.98;4.95;;;;;;;;;;5018433;23;20376;-51
2022/02/22 12:05:39;;;;;;;22.52;5.15;;;;;;;;;;4995160;28;21170;-51
2022/02/22 12:08:38;;;;;;;30.80;6.00;;;;;;;;;;4998966;28;20037;-54
2022/02/22 12:11:07;;;;;;;21.58;4.57;;;;;;;;;;4981449;28;20053;-49
2022/02/22 12:13:42;;;;;;;19.95;4.47;;;;;;;;;;5000359;28;20594;-49
2022/02/22 12:16:15;;;;;;;15.32;5.18;;;;;;;;;;5001026;28;20078;-47
2022/02/22 12:18:45;;;;;;;21.67;5.03;;;;;;;;;;4999863;28;20496;-51
2022/02/22 12:21:12;;;;;;;19.70;5.90;;;;;;;;;;4997131;28;20103;-47
2022/02/22 12:23:41;;;;;;;19.38;4.45;;;;;;;;;;4995125;28;20062;-52
2022/02/22 12:26:12;;;;;;;13.13;3.92;;;;;;;;;;4997344;28;20081;-51
2022/02/22 12:29:08;;;;;;;16.83;4.35;;;;;;;;;;4995466;28;20064;-53
2022/02/22 12:31:39;;;;;;;17.27;5.28;;;;;;;;;;4990352;28;20119;-49
2022/02/22 12:34:06;;;;;;;20.90;4.85;;;;;;;;;;4994595;28;20033;-51
2022/02/22 12:36:33;;;;;;;13.93;4.13;;;;;;;;;;4997325;28;20045;-48
2022/02/22 12:39:00;;;;;;;16.40;4.45;;;;;;;;;;4998378;28;20630;-52
2022/02/22 12:41:30;;;;;;;13.65;3.80;;;;;;;;;;4996650;28;20161;-49
2022/02/22 12:43:57;;;;;;;13.48;4.68;;;;;;;;;;4997303;28;20113;-49
2022/02/22 12:46:23;;;;;;;15.55;4.07;;;;;;;;;;4992367;28;20446;-52
2022/02/22 12:48:49;;;;;;;17.15;4.65;;;;;;;;;;5000241;28;20058;-51
2022/02/22 12:51:26;;;;;;;17.08;4.22;;;;;;;;;;4995770;28;20037;-51
2022/02/22 12:53:56;;;;;;;16.70;4.00;;;;;;;;;;5000740;28;20040;-50
2022/02/22 12:56:23;;;;;;;;;;;;;;;;;;5000632;28;20022;-52
2022/02/22 12:58:49;;;;;;;18.33;4.60;;;;;;;;;;4998367;28;19920;-49
2022/02/22 13:01:17;;;;;;;13.45;4.60;;;;;;;;;;4994646;28;20450;-49
2022/02/22 13:03:45;;;;;;;16.60;4.22;;;;;;;;;;4999435;28;20057;-51
2022/02/22 13:06:12;;;;;;;12.93;4.00;;;;;;;;;;4996580;28;20030;-48
2022/02/22 13:08:39;;;;;;;18.00;4.63;;;;;;;;;;4995973;28;20030;-54
2022/02/22 13:11:05;;;;;;;14.77;3.95;;;;;;;;;;4998014;28;20029;-52
2022/02/22 13:13:32;;;;;;;19.73;4.43;;;;;;;;;;5000069;28;20049;-48
2022/02/22 13:16:08;;;;;;;14.50;4.07;;;;;;;;;;5001444;28;20109;-50
2022/02/22 13:18:34;;;;;;;15.10;4.07;;;;;;;;;;4997032;28;20049;-49
2022/02/22 13:21:10;;;;;;;16.42;4.80;;;;;;;;;;4999984;28;20061;-49
2022/02/22 13:23:37;;;;;;;17.65;4.20;;;;;;;;;;4997639;28;20104;-47
2022/02/22 13:26:04;;;;;;;11.95;3.30;;;;;;;;;;4997237;28;20042;-50
2022/02/22 13:28:34;;;;;;;15.40;4.25;;;;;;;;;;4997214;28;20030;-48
2022/02/22 13:31:16;;;;;;;13.43;3.58;;;;;;;;;;4996780;28;20113;-50
2022/02/22 13:33:43;;;;;;;9.95;3.35;;;;;;;;;;5000063;28;20041;-51
2022/02/22 13:36:15;;;;;;;9.88;2.63;;;;;;;;;;4999355;28;20468;-50
2022/02/22 13:38:44;;;;;;;10.15;3.53;;;;;;;;;;4996432;28;22820;-47
2022/02/22 13:41:12;;;;;;;10.70;3.55;;;;;;;;;;4999674;28;20030;-51
2022/02/22 13:43:38;;;;;;;15.07;3.97;;;;;;;;;;4999953;28;20036;-50
2022/02/22 13:46:04;;;;;;;10.20;3.45;;;;;;;;;;4997579;28;20037;-50
2022/02/22 13:48:31;;;;;;;9.13;3.08;;;;;;;;;;4998439;28;20404;-46
2022/02/22 13:51:23;;;;;;;11.57;3.47;;;;;;;;;;4995836;28;20056;-54
2022/02/22 13:53:49;;;;;;;14.48;3.63;;;;;;;;;;4997759;28;20173;-47
2022/02/22 13:56:15;;;;;;;12.05;3.67;;;;;;;;;;4997829;28;20042;-48
2022/02/22 13:58:41;;;;;;;9.98;3.13;;;;;;;;;;4995751;28;20544;-46
2022/02/22 14:01:10;;;;;;;11.70;3.75;;;;;;;;;;4999646;28;20112;-47
2022/02/22 14:03:38;;;;;;;12.77;3.80;;;;;;;;;;4997346;28;20124;-46
2022/02/22 14:06:04;;;;;;;10.38;3.10;;;;;;;;;;4997088;28;21144;-49
2022/02/22 14:08:30;;;;;;;9.98;3.13;;;;;;;;;;4998226;28;20033;-53
2022/02/22 14:10:56;;;;;;;11.05;3.08;;;;;;;;;;4998275;28;20045;-47
2022/02/22 14:13:23;;;;;;;12.15;3.17;;;;;;;;;;4996995;28;20041;-48
2022/02/22 14:15:49;;;;;;;8.80;3.35;;;;;;;;;;4996149;28;20041;-49
2022/02/22 14:18:15;;;;;;;9.45;3.47;;;;;;;;;;4997642;28;20125;-52
2022/02/22 14:20:42;;;;;;;10.57;2.60;;;;;;;;;;4996112;28;20431;-48
2022/02/22 14:23:08;;;;;;;10.27;3.00;;;;;;;;;;4994602;28;20165;-48
2022/02/22 14:25:36;;;;;;;12.50;3.33;;;;;;;;;;4997834;28;20036;-50
2022/02/22 14:28:03;;;;;;;17.38;2.88;;;;;;;;;;4995097;28;20605;-51
2022/02/22 14:30:31;;;;;;;12.48;3.25;;;;;;;;;;5001134;28;20133;-53
2022/02/22 14:33:00;;;;;;;9.55;2.67;;;;;;;;;;4997677;28;20440;-52